createdAt,value
2023-04-16T00:01:05.492Z,39.50
2023-04-16T00:03:34.583Z,39.56
2023-04-16T00:06:02.775Z,39.60
2023-04-16T00:08:30.641Z,39.54
2023-04-16T00:10:58.823Z,39.73
2023-04-16T00:13:28.138Z,39.65
2023-04-16T00:15:56.081Z,39.68
2023-04-16T00:18:24.040Z,39.60
2023-04-16T00:20:52.126Z,39.76
2023-04-16T00:23:20.367Z,39.56
2023-04-16T00:25:48.573Z,39.69
2023-04-16T00:28:16.515Z,39.71
2023-04-16T00:30:44.535Z,39.75
2023-04-16T00:33:12.589Z,39.65
2023-04-16T00:35:40.960Z,39.72
2023-04-16T00:38:10.083Z,39.63
2023-04-16T00:40:38.340Z,39.90
2023-04-16T00:43:06.301Z,39.66
2023-04-16T00:45:34.382Z,39.73
2023-04-16T00:48:02.677Z,39.84
2023-04-16T00:50:31.143Z,39.82
2023-04-16T00:52:59.212Z,39.93
2023-04-16T00:55:27.391Z,39.78
2023-04-16T00:57:55.722Z,39.76
2023-04-16T01:00:24.064Z,39.74
2023-04-16T01:02:53.559Z,39.76
2023-04-16T01:05:21.718Z,39.64
2023-04-16T01:07:50.608Z,39.85
2023-04-16T01:10:18.888Z,39.88
2023-04-16T01:12:47.068Z,39.83
2023-04-16T01:15:15.445Z,39.89
2023-04-16T01:17:46.198Z,39.95
2023-04-16T01:20:14.878Z,39.72
2023-04-16T01:22:43.158Z,39.82
2023-04-16T01:25:14.851Z,39.80
2023-04-16T01:27:42.970Z,39.83
2023-04-16T01:30:11.577Z,39.89
2023-04-16T01:32:48.770Z,39.89
2023-04-16T01:35:18.269Z,39.89
2023-04-16T01:37:46.617Z,40.01
2023-04-16T01:40:14.697Z,39.91
2023-04-16T01:42:42.642Z,40.00
2023-04-16T01:45:11.455Z,39.98
2023-04-16T01:47:39.584Z,39.90
2023-04-16T01:50:08.217Z,40.13
2023-04-16T01:52:37.249Z,39.96
2023-04-16T01:55:06.101Z,40.05
2023-04-16T01:57:34.171Z,39.98
2023-04-16T02:00:03.378Z,39.89
2023-04-16T02:02:32.430Z,40.10
2023-04-16T02:05:01.323Z,39.99
2023-04-16T02:07:31.877Z,39.99
2023-04-16T02:09:59.966Z,39.98
2023-04-16T02:12:29.347Z,40.01
2023-04-16T02:14:57.420Z,40.10
2023-04-16T02:17:27.513Z,40.18
2023-04-16T02:20:08.384Z,40.08
2023-04-16T02:22:38.326Z,40.06
2023-04-16T02:25:07.647Z,40.11
2023-04-16T02:27:36.830Z,39.95
2023-04-16T02:30:19.336Z,39.92
2023-04-16T02:32:47.555Z,40.02
2023-04-16T02:35:16.197Z,40.06
2023-04-16T02:37:44.263Z,40.05
2023-04-16T02:40:12.193Z,40.11
2023-04-16T02:42:40.409Z,39.99
2023-04-16T02:45:09.769Z,40.03
2023-04-16T02:47:38.028Z,40.05
2023-04-16T02:50:07.065Z,40.14
2023-04-16T02:52:35.168Z,40.07
2023-04-16T02:55:03.339Z,40.05
2023-04-16T02:57:31.410Z,40.08
2023-04-16T02:59:59.474Z,40.15
2023-04-16T03:02:27.847Z,40.19
2023-04-16T03:04:56.027Z,40.22
2023-04-16T03:07:24.100Z,40.25
2023-04-16T03:09:52.288Z,40.44
2023-04-16T03:12:20.218Z,40.31
2023-04-16T03:14:48.208Z,40.40
2023-04-16T03:17:16.593Z,40.51
2023-04-16T03:19:44.871Z,40.50
2023-04-16T03:22:13.664Z,40.55
2023-04-16T03:24:41.782Z,40.56
2023-04-16T03:27:09.906Z,40.58
2023-04-16T03:29:38.898Z,40.67
2023-04-16T03:32:07.781Z,40.72
2023-04-16T03:34:36.868Z,40.68
2023-04-16T03:37:06.322Z,40.76
2023-04-16T03:39:34.781Z,40.77
2023-04-16T03:42:03.697Z,40.82
2023-04-16T03:44:31.782Z,40.88
2023-04-16T03:46:59.832Z,40.84
2023-04-16T03:49:28.183Z,40.86
2023-04-16T03:51:56.255Z,40.78
2023-04-16T03:54:24.432Z,40.94
2023-04-16T03:56:57.940Z,40.76
2023-04-16T03:59:26.106Z,40.89
2023-04-16T04:01:54.210Z,40.93
2023-04-16T04:04:23.105Z,40.89
2023-04-16T04:06:51.279Z,40.77
2023-04-16T04:09:19.311Z,40.81
2023-04-16T04:11:47.705Z,40.80
2023-04-16T04:14:15.867Z,40.63
2023-04-16T04:16:44.102Z,40.63
2023-04-16T04:19:12.739Z,40.53
2023-04-16T04:21:41.107Z,40.53
2023-04-16T04:24:10.720Z,40.47
2023-04-16T04:26:38.594Z,40.30
2023-04-16T04:29:07.153Z,40.27
2023-04-16T04:31:36.498Z,40.23
2023-04-16T04:34:04.739Z,40.06
2023-04-16T04:36:33.827Z,40.06
2023-04-16T04:39:02.114Z,39.93
2023-04-16T04:41:30.297Z,39.83
2023-04-16T04:43:58.254Z,39.69
2023-04-16T04:46:26.656Z,39.69
2023-04-16T04:48:55.010Z,39.53
2023-04-16T04:51:23.189Z,39.46
2023-04-16T04:53:51.448Z,39.21
2023-04-16T04:56:19.645Z,39.22
2023-04-16T04:58:47.627Z,39.28
2023-04-16T05:01:15.734Z,38.96
2023-04-16T05:03:44.469Z,38.89
2023-04-16T05:06:12.747Z,38.76
2023-04-16T05:08:40.919Z,38.72
2023-04-16T05:11:08.993Z,38.53
2023-04-16T05:13:37.271Z,38.50
2023-04-16T05:16:06.157Z,38.32
2023-04-16T05:18:34.240Z,38.34
2023-04-16T05:21:02.715Z,38.26
2023-04-16T05:23:30.683Z,37.94
2023-04-16T05:25:58.622Z,38.00
2023-04-16T05:28:26.621Z,38.06
2023-04-16T05:30:54.824Z,38.00
2023-04-16T05:33:22.971Z,37.90
2023-04-16T05:35:51.146Z,37.76
2023-04-16T05:38:19.241Z,37.69
2023-04-16T05:40:47.191Z,37.70
2023-04-16T05:43:15.256Z,37.82
2023-04-16T05:45:43.217Z,37.47
2023-04-16T05:48:11.501Z,37.46
2023-04-16T05:50:39.875Z,37.25
2023-04-16T05:53:08.872Z,37.16
2023-04-16T05:55:39.810Z,37.22
2023-04-16T05:58:07.874Z,37.13
2023-04-16T06:00:36.051Z,37.01
2023-04-16T06:03:04.661Z,36.86
2023-04-16T06:05:32.941Z,36.75
2023-04-16T06:08:01.302Z,36.69
2023-04-16T06:10:29.632Z,36.73
2023-04-16T06:12:57.845Z,36.62
2023-04-16T06:15:26.015Z,36.75
2023-04-16T06:17:54.699Z,36.59
2023-04-16T06:20:22.900Z,36.55
2023-04-16T06:22:50.850Z,36.40
2023-04-16T06:25:18.824Z,36.38
2023-04-16T06:27:46.786Z,36.37
2023-04-16T06:30:15.785Z,36.35
2023-04-16T06:32:44.416Z,36.36
2023-04-16T06:35:12.648Z,36.21
2023-04-16T06:37:40.849Z,36.22
2023-04-16T06:40:09.526Z,36.28
2023-04-16T06:42:37.517Z,36.29
2023-04-16T06:45:06.667Z,36.24
2023-04-16T06:47:34.791Z,36.33
2023-04-16T06:50:02.927Z,36.20
2023-04-16T06:52:31.090Z,36.16
2023-04-16T06:54:59.486Z,36.24
2023-04-16T06:57:27.753Z,36.10
2023-04-16T06:59:55.940Z,36.24
2023-04-16T07:02:24.509Z,36.11
2023-04-16T07:04:52.688Z,36.03
2023-04-16T07:07:20.854Z,36.15
2023-04-16T07:09:48.918Z,36.12
2023-04-16T07:12:17.116Z,36.00
2023-04-16T07:14:45.575Z,36.01
2023-04-16T07:17:13.668Z,36.05
2023-04-16T07:19:41.717Z,35.87
2023-04-16T07:22:09.904Z,35.76
2023-04-16T07:24:37.978Z,36.03
2023-04-16T07:27:06.246Z,35.80
2023-04-16T07:29:34.305Z,35.93
2023-04-16T07:32:02.415Z,35.95
2023-04-16T07:34:30.413Z,35.86
2023-04-16T07:36:58.533Z,35.87
2023-04-16T07:39:26.611Z,35.80
2023-04-16T07:41:54.594Z,35.67
2023-04-16T07:44:22.657Z,35.60
2023-04-16T07:46:50.789Z,35.84
2023-04-16T07:49:18.870Z,35.80
2023-04-16T07:51:47.166Z,35.61
2023-04-16T07:54:15.246Z,35.44
2023-04-16T07:56:43.160Z,35.64
2023-04-16T07:59:21.791Z,35.41
2023-04-16T08:01:52.865Z,35.41
2023-04-16T08:04:25.302Z,35.49
2023-04-16T08:06:54.639Z,35.29
2023-04-16T08:09:23.584Z,35.29
2023-04-16T08:11:51.695Z,35.33
2023-04-16T08:14:19.681Z,35.18
2023-04-16T08:16:47.758Z,35.15
2023-04-16T08:19:15.830Z,34.94
2023-04-16T08:21:44.342Z,35.13
2023-04-16T08:24:12.253Z,35.10
2023-04-16T08:26:40.538Z,34.91
2023-04-16T08:29:08.943Z,34.91
2023-04-16T08:31:37.278Z,34.88
2023-04-16T08:34:05.496Z,34.79
2023-04-16T08:36:33.564Z,34.72
2023-04-16T08:39:01.641Z,34.70
2023-04-16T08:41:33.090Z,34.81
2023-04-16T08:44:01.381Z,34.52
2023-04-16T08:46:29.353Z,34.44
2023-04-16T08:48:57.504Z,34.61
2023-04-16T08:51:27.212Z,34.51
2023-04-16T08:54:00.428Z,34.23
2023-04-16T08:56:28.489Z,34.36
2023-04-16T08:58:56.705Z,34.38
2023-04-16T09:03:58.520Z,34.33
2023-04-16T09:06:27.829Z,34.30
2023-04-16T09:11:29.088Z,34.02
2023-04-16T09:13:57.573Z,34.09
2023-04-16T09:18:58.428Z,34.00
2023-04-16T09:21:26.594Z,33.99
2023-04-16T09:23:54.667Z,34.08
2023-04-16T09:26:22.848Z,34.01
2023-04-16T09:28:53.683Z,33.88
2023-04-16T09:31:21.712Z,34.07
2023-04-16T09:34:02.418Z,34.00
2023-04-16T09:36:31.712Z,33.89
2023-04-16T09:39:00.004Z,33.89
2023-04-16T09:41:29.427Z,34.08
2023-04-16T09:44:02.267Z,33.87
2023-04-16T09:46:42.862Z,34.04
2023-04-16T09:49:14.882Z,33.62
2023-04-16T09:51:43.941Z,33.92
2023-04-16T09:54:12.061Z,33.82
2023-04-16T09:56:46.627Z,33.65
2023-04-16T09:59:20.996Z,33.56
2023-04-16T10:01:50.074Z,33.63
2023-04-16T10:04:18.317Z,33.57
2023-04-16T10:07:03.556Z,33.61
2023-04-16T10:09:38.000Z,33.58
2023-04-16T10:12:06.848Z,33.62
2023-04-16T10:14:35.093Z,33.50
2023-04-16T10:17:04.189Z,33.49
2023-04-16T10:19:32.840Z,33.38
2023-04-16T10:22:01.605Z,33.39
2023-04-16T10:24:30.429Z,33.39
2023-04-16T10:26:58.736Z,33.42
2023-04-16T10:29:30.761Z,33.35
2023-04-16T10:31:58.933Z,33.28
2023-04-16T10:34:27.117Z,33.46
2023-04-16T10:36:55.489Z,33.22
2023-04-16T10:39:24.392Z,33.35
2023-04-16T10:42:07.779Z,33.18
2023-04-16T10:44:36.271Z,33.14
2023-04-16T10:47:11.362Z,33.27
2023-04-16T10:49:39.809Z,33.28
2023-04-16T10:52:12.705Z,33.14
2023-04-16T10:54:41.175Z,33.15
2023-04-16T11:07:34.603Z,32.90
2023-04-16T11:10:13.045Z,33.02
2023-04-16T11:12:41.106Z,32.88
2023-04-16T11:15:10.392Z,33.02
2023-04-16T11:17:46.064Z,33.14
2023-04-16T11:20:28.039Z,32.98
2023-04-16T11:22:57.449Z,32.96
2023-04-16T11:25:27.348Z,32.85
2023-04-16T11:27:55.427Z,33.05
2023-04-16T11:30:34.317Z,32.87
2023-04-16T11:33:05.893Z,33.03
2023-04-16T11:35:33.983Z,32.91
2023-04-16T11:38:02.463Z,32.85
2023-04-16T11:40:31.403Z,32.82
2023-04-16T11:43:04.105Z,32.76
2023-04-16T11:45:32.127Z,33.00
2023-04-16T11:48:00.301Z,32.83
2023-04-16T11:50:28.696Z,32.79
2023-04-16T11:52:57.981Z,32.91
2023-04-16T11:55:26.114Z,32.82
2023-04-16T11:57:54.202Z,32.91
2023-04-16T12:00:24.579Z,32.84
2023-04-16T12:02:54.118Z,32.94
2023-04-16T12:05:34.058Z,32.67
2023-04-16T12:10:38.631Z,32.75
2023-04-16T12:15:54.146Z,32.54
2023-04-16T12:18:23.863Z,32.64
2023-04-16T12:20:51.822Z,32.72
2023-04-16T12:23:30.110Z,32.69
2023-04-16T12:26:02.781Z,32.78
2023-04-16T12:28:33.488Z,32.65
2023-04-16T12:31:02.513Z,32.76
2023-04-16T12:36:20.123Z,32.75
2023-04-16T12:38:48.239Z,32.80
2023-04-16T12:41:17.169Z,32.63
2023-04-16T12:43:45.213Z,32.78
2023-04-16T12:46:13.329Z,32.46
2023-04-16T12:48:41.862Z,32.62
2023-04-16T12:51:09.951Z,32.56
2023-04-16T12:53:38.030Z,32.47
2023-04-16T12:56:06.596Z,32.83
2023-04-16T12:58:34.964Z,32.81
2023-04-16T13:01:02.938Z,32.62
2023-04-16T13:03:31.372Z,32.78
2023-04-16T13:05:59.700Z,32.62
2023-04-16T13:08:27.773Z,32.69
2023-04-16T13:10:55.950Z,32.78
2023-04-16T13:13:23.875Z,32.86
2023-04-16T13:15:52.126Z,32.99
2023-04-16T13:18:20.267Z,32.77
2023-04-16T13:20:48.431Z,32.86
2023-04-16T13:23:16.515Z,32.75
2023-04-16T13:25:44.784Z,32.99
2023-04-16T13:28:12.897Z,33.05
2023-04-16T13:30:41.334Z,33.01
2023-04-16T13:33:09.418Z,33.01
2023-04-16T13:35:37.490Z,33.02
2023-04-16T13:38:06.278Z,33.11
2023-04-16T13:40:34.726Z,33.09
2023-04-16T13:43:02.833Z,33.10
2023-04-16T13:45:31.105Z,33.29
2023-04-16T13:47:59.716Z,33.20
2023-04-16T13:50:28.167Z,33.28
2023-04-16T13:52:56.538Z,33.42
2023-04-16T13:55:24.831Z,33.53
2023-04-16T13:57:53.505Z,33.83
2023-04-16T14:00:21.988Z,33.97
2023-04-16T14:02:50.132Z,33.94
2023-04-16T14:05:19.686Z,34.05
2023-04-16T14:07:47.942Z,34.09
2023-04-16T14:10:16.226Z,34.22
2023-04-16T14:12:45.021Z,34.19
2023-04-16T14:15:14.940Z,34.41
2023-04-16T14:17:43.717Z,34.39
2023-04-16T14:20:13.020Z,34.65
2023-04-16T14:22:42.626Z,34.62
2023-04-16T14:25:10.900Z,34.92
2023-04-16T14:27:38.864Z,34.80
2023-04-16T14:30:08.172Z,34.98
2023-04-16T14:32:36.903Z,34.92
2023-04-16T14:35:05.849Z,35.02
2023-04-16T14:37:36.082Z,35.22
2023-04-16T14:40:08.604Z,35.18
2023-04-16T14:42:37.129Z,35.12
2023-04-16T14:45:06.826Z,35.30
2023-04-16T14:47:35.383Z,35.23
2023-04-16T14:50:03.830Z,35.25
2023-04-16T14:52:32.504Z,35.51
2023-04-16T14:55:00.665Z,35.33
2023-04-16T14:57:28.945Z,35.41
2023-04-16T14:59:57.084Z,35.47
2023-04-16T15:02:26.213Z,35.47
2023-04-16T15:04:54.690Z,35.35
2023-04-16T15:07:22.960Z,35.56
2023-04-16T15:09:51.244Z,35.64
2023-04-16T15:12:19.532Z,35.34
2023-04-16T15:14:47.685Z,35.71
2023-04-16T15:17:15.864Z,35.41
2023-04-16T15:19:43.827Z,35.64
2023-04-16T15:22:12.720Z,35.46
2023-04-16T15:24:40.908Z,35.65
2023-04-16T15:27:11.634Z,35.66
2023-04-16T15:29:40.227Z,35.63
2023-04-16T15:32:08.499Z,35.73
2023-04-16T15:34:36.585Z,35.76
2023-04-16T15:37:04.854Z,35.65
2023-04-16T15:39:33.023Z,35.73
2023-04-16T15:42:04.026Z,35.93
2023-04-16T15:44:33.572Z,36.03
2023-04-16T15:47:01.564Z,35.78
2023-04-16T15:49:29.709Z,35.92
2023-04-16T15:51:57.893Z,35.84
2023-04-16T15:54:26.102Z,35.92
2023-04-16T15:56:54.241Z,36.03
2023-04-16T15:59:22.312Z,36.11
2023-04-16T16:01:50.461Z,36.05
2023-04-16T16:04:18.892Z,36.24
2023-04-16T16:06:47.150Z,36.29
2023-04-16T16:09:15.412Z,36.23
2023-04-16T16:11:43.484Z,36.23
2023-04-16T16:14:11.855Z,36.32
2023-04-16T16:16:40.308Z,36.38
2023-04-16T16:19:08.613Z,36.44
2023-04-16T16:21:37.722Z,36.46
2023-04-16T16:24:05.992Z,36.47
2023-04-16T16:26:34.059Z,36.63
2023-04-16T16:29:02.157Z,36.73
2023-04-16T16:31:30.534Z,36.80
2023-04-16T16:33:58.704Z,36.83
2023-04-16T16:36:27.686Z,36.98
2023-04-16T16:38:55.659Z,37.17
2023-04-16T16:41:23.936Z,37.15
2023-04-16T16:43:56.006Z,37.13
2023-04-16T16:46:24.101Z,37.35
2023-04-16T16:48:52.142Z,37.35
2023-04-16T16:51:20.112Z,37.51
2023-04-16T16:53:48.187Z,37.63
2023-04-16T16:56:16.249Z,37.54
2023-04-16T16:58:44.350Z,37.60
2023-04-16T17:01:12.558Z,37.67
2023-04-16T17:03:41.231Z,37.47
2023-04-16T17:06:09.469Z,37.79
2023-04-16T17:08:37.541Z,37.78
2023-04-16T17:11:05.709Z,37.84
2023-04-16T17:13:34.807Z,37.68
2023-04-16T17:16:02.968Z,37.81
2023-04-16T17:18:31.256Z,37.73
2023-04-16T17:20:59.237Z,37.82
2023-04-16T17:23:27.496Z,37.73
2023-04-16T17:25:55.444Z,37.80
2023-04-16T17:28:23.450Z,37.72
2023-04-16T17:30:52.027Z,37.83
2023-04-16T17:33:20.670Z,37.77
2023-04-16T17:35:48.788Z,37.78
2023-04-16T17:38:16.746Z,37.67
2023-04-16T17:40:44.925Z,37.65
2023-04-16T17:43:13.201Z,37.71
2023-04-16T17:45:41.233Z,37.63
2023-04-16T17:48:09.516Z,37.76
2023-04-16T17:50:39.515Z,37.79
2023-04-16T17:53:11.120Z,37.69
2023-04-16T17:55:39.313Z,37.55
2023-04-16T17:58:07.367Z,37.70
2023-04-16T18:00:35.529Z,37.61
2023-04-16T18:03:03.888Z,37.69
2023-04-16T18:05:32.100Z,37.50
2023-04-16T18:08:00.157Z,37.59
2023-04-16T18:10:31.726Z,37.64
2023-04-16T18:13:01.222Z,37.64
2023-04-16T18:15:29.931Z,37.42
2023-04-16T18:17:58.099Z,37.58
2023-04-16T18:20:27.395Z,37.54
2023-04-16T18:22:56.181Z,37.57
2023-04-16T18:25:33.902Z,37.52
2023-04-16T18:28:04.065Z,37.60
2023-04-16T18:30:32.229Z,37.52
2023-04-16T18:33:26.334Z,37.56
2023-04-16T18:35:48.678Z,37.50
2023-04-16T18:38:16.867Z,37.42
2023-04-16T18:40:46.964Z,37.38
2023-04-16T18:43:15.041Z,37.34
2023-04-16T18:45:42.907Z,37.52
2023-04-16T18:48:11.401Z,37.43
2023-04-16T18:50:39.471Z,37.42
2023-04-16T18:53:07.530Z,37.30
2023-04-16T18:55:35.707Z,37.52
2023-04-16T18:58:03.880Z,37.43
2023-04-16T19:00:32.319Z,37.44
2023-04-16T19:03:00.658Z,37.28
2023-04-16T19:05:29.230Z,37.40
2023-04-16T19:07:57.233Z,37.35
2023-04-16T19:10:25.271Z,37.33
2023-04-16T19:12:53.440Z,37.39
2023-04-16T19:15:21.411Z,37.53
2023-04-16T19:17:49.408Z,37.40
2023-04-16T19:20:17.775Z,37.38
2023-04-16T19:22:46.145Z,37.41
2023-04-16T19:25:14.220Z,37.52
2023-04-16T19:27:42.297Z,37.45
2023-04-16T19:30:11.147Z,37.36
2023-04-16T19:32:39.386Z,37.62
2023-04-16T19:35:08.157Z,37.57
2023-04-16T19:37:36.317Z,37.53
2023-04-16T19:40:06.370Z,37.54
2023-04-16T19:42:34.505Z,37.63
2023-04-16T19:45:03.290Z,37.67
2023-04-16T19:47:31.291Z,37.54
2023-04-16T19:49:59.433Z,37.73
2023-04-16T19:52:27.723Z,37.65
2023-04-16T19:54:55.993Z,37.57
2023-04-16T19:57:24.066Z,37.76
2023-04-16T19:59:53.543Z,37.64
2023-04-16T20:02:23.303Z,37.79
2023-04-16T20:04:53.204Z,37.68
2023-04-16T20:07:21.157Z,37.82
2023-04-16T20:09:49.126Z,38.01
2023-04-16T20:12:18.745Z,37.89
2023-04-16T20:14:47.434Z,37.89
2023-04-16T20:17:19.749Z,37.77
2023-04-16T20:19:49.659Z,37.80
2023-04-16T20:22:18.924Z,37.97
2023-04-16T20:24:48.111Z,37.95
2023-04-16T20:27:17.211Z,37.97
2023-04-16T20:29:45.286Z,37.98
2023-04-16T20:32:13.451Z,37.97
2023-04-16T20:34:41.538Z,38.06
2023-04-16T20:37:09.587Z,38.16
2023-04-16T20:39:37.676Z,38.06
2023-04-16T20:42:10.139Z,38.19
2023-04-16T20:44:41.298Z,38.11
2023-04-16T20:47:09.861Z,38.29
2023-04-16T20:49:40.400Z,38.25
2023-04-16T20:52:08.477Z,38.36
2023-04-16T20:54:36.532Z,38.39
2023-04-16T20:57:05.071Z,38.33
2023-04-16T20:59:33.191Z,38.39
2023-04-16T21:02:01.352Z,38.44
2023-04-16T21:04:29.778Z,38.52
2023-04-16T21:06:57.983Z,38.54
2023-04-16T21:09:26.074Z,38.56
2023-04-16T21:11:54.179Z,38.56
2023-04-16T21:14:22.302Z,38.53
2023-04-16T21:16:50.188Z,38.47
2023-04-16T21:19:18.283Z,38.62
2023-04-16T21:21:46.873Z,38.68
2023-04-16T21:24:14.737Z,38.62
2023-04-16T21:26:42.659Z,38.66
2023-04-16T21:29:11.204Z,38.74
2023-04-16T21:31:39.631Z,38.84
2023-04-16T21:34:07.769Z,38.76
2023-04-16T21:36:36.018Z,38.87
2023-04-16T21:39:04.125Z,38.80
2023-04-16T21:41:32.279Z,38.66
2023-04-16T21:44:00.347Z,38.78
2023-04-16T21:46:28.947Z,38.86
2023-04-16T21:48:57.024Z,38.81
2023-04-16T21:51:29.035Z,38.82
2023-04-16T21:53:57.333Z,38.90
2023-04-16T21:56:26.102Z,38.83
2023-04-16T21:58:54.204Z,38.96
2023-04-16T22:01:22.298Z,38.91
2023-04-16T22:03:52.191Z,38.90
2023-04-16T22:06:20.708Z,39.06
2023-04-16T22:08:50.318Z,38.90
2023-04-16T22:11:18.438Z,38.96
2023-04-16T22:13:47.913Z,38.98
2023-04-16T22:16:16.328Z,38.95
2023-04-16T22:18:45.300Z,38.97
2023-04-16T22:21:13.284Z,38.98
2023-04-16T22:23:41.256Z,39.06
2023-04-16T22:26:09.435Z,39.14
2023-04-16T22:28:37.335Z,39.03
2023-04-16T22:31:05.699Z,39.12
2023-04-16T22:33:33.688Z,39.28
2023-04-16T22:36:01.723Z,39.12
2023-04-16T22:38:29.791Z,39.20
2023-04-16T22:40:57.967Z,39.15
2023-04-16T22:43:26.143Z,39.05
2023-04-16T22:46:05.028Z,39.13
2023-04-16T22:48:34.164Z,39.19
2023-04-16T22:51:02.844Z,39.20
2023-04-16T22:53:31.119Z,39.22
2023-04-16T22:55:59.399Z,39.24
2023-04-16T22:58:27.577Z,39.19
2023-04-16T23:00:57.742Z,39.17
2023-04-16T23:03:26.171Z,39.30
2023-04-16T23:05:54.556Z,39.23
2023-04-16T23:08:22.524Z,39.28
2023-04-16T23:10:50.596Z,39.27
2023-04-16T23:13:18.662Z,39.34
2023-04-16T23:15:47.539Z,39.24
2023-04-16T23:18:16.379Z,39.46
2023-04-16T23:20:44.625Z,39.45
2023-04-16T23:23:12.894Z,39.28
2023-04-16T23:25:41.624Z,39.31
2023-04-16T23:28:09.661Z,39.38
2023-04-16T23:30:37.641Z,39.41
2023-04-16T23:33:05.718Z,39.46
2023-04-16T23:35:33.766Z,39.41
2023-04-16T23:38:01.845Z,39.50
2023-04-16T23:40:30.317Z,39.48
2023-04-16T23:42:58.492Z,39.64
2023-04-16T23:45:26.640Z,39.59
2023-04-16T23:47:55.295Z,39.51
2023-04-16T23:50:23.262Z,39.58
2023-04-16T23:52:51.712Z,39.50
2023-04-16T23:55:19.774Z,39.53
2023-04-16T23:57:47.768Z,39.51
